sensor_id;sensor_type;location;lat;lon;timestamp;pressure;altitude;pressure_sealevel;temperature;humidity
13434;BME280;6789;47.678;9.158;2023-02-28T00:03:06;97152.38;;;-0.31;83.78
13434;BME280;6789;47.678;9.158;2023-02-28T00:07:58;97156.50;;;-0.38;84.18
13434;BME280;6789;47.678;9.158;2023-02-28T00:13:05;97147.66;;;-0.36;84.24
13434;BME280;6789;47.678;9.158;2023-02-28T00:18:22;97142.06;;;-0.31;83.65
13434;BME280;6789;47.678;9.158;2023-02-28T00:23:38;97156.22;;;-0.35;84.20
13434;BME280;6789;47.678;9.158;2023-02-28T00:28:44;97152.81;;;-0.36;84.57
13434;BME280;6789;47.678;9.158;2023-02-28T00:33:52;97151.66;;;-0.41;83.70
13434;BME280;6789;47.678;9.158;2023-02-28T00:38:58;97143.25;;;-0.43;84.35
13434;BME280;6789;47.678;9.158;2023-02-28T00:44:04;97138.78;;;-0.41;84.27
13434;BME280;6789;47.678;9.158;2023-02-28T00:49:11;97134.56;;;-0.42;84.91
13434;BME280;6789;47.678;9.158;2023-02-28T00:54:40;97139.56;;;-0.41;84.59
13434;BME280;6789;47.678;9.158;2023-02-28T00:59:38;97129.25;;;-0.41;84.60
13434;BME280;6789;47.678;9.158;2023-02-28T01:04:44;97131.41;;;-0.36;84.40
13434;BME280;6789;47.678;9.158;2023-02-28T01:09:50;97132.63;;;-0.40;85.07
13434;BME280;6789;47.678;9.158;2023-02-28T01:14:55;97132.09;;;-0.34;84.71
13434;BME280;6789;47.678;9.158;2023-02-28T01:19:47;97121.25;;;-0.38;84.46
13434;BME280;6789;47.678;9.158;2023-02-28T01:24:56;97124.47;;;-0.36;84.13
13434;BME280;6789;47.678;9.158;2023-02-28T01:30:06;97131.09;;;-0.33;83.79
13434;BME280;6789;47.678;9.158;2023-02-28T01:35:14;97128.84;;;-0.36;84.09
13434;BME280;6789;47.678;9.158;2023-02-28T01:40:20;97133.69;;;-0.33;83.81
13434;BME280;6789;47.678;9.158;2023-02-28T01:45:31;97133.81;;;-0.35;84.75
13434;BME280;6789;47.678;9.158;2023-02-28T01:51:04;97138.03;;;-0.34;84.36
13434;BME280;6789;47.678;9.158;2023-02-28T01:56:29;97130.06;;;-0.40;84.50
13434;BME280;6789;47.678;9.158;2023-02-28T02:01:38;97141.63;;;-0.44;84.70
13434;BME280;6789;47.678;9.158;2023-02-28T02:06:49;97129.50;;;-0.34;84.11
13434;BME280;6789;47.678;9.158;2023-02-28T02:11:57;97118.88;;;-0.49;83.85
13434;BME280;6789;47.678;9.158;2023-02-28T02:17:25;97124.84;;;-0.48;84.83
13434;BME280;6789;47.678;9.158;2023-02-28T02:28:22;97114.25;;;-0.45;83.82
13434;BME280;6789;47.678;9.158;2023-02-28T02:39:13;97114.19;;;-0.36;83.48
13434;BME280;6789;47.678;9.158;2023-02-28T02:44:20;97120.75;;;-0.41;83.80
13434;BME280;6789;47.678;9.158;2023-02-28T02:49:19;97121.03;;;-0.44;84.15
13434;BME280;6789;47.678;9.158;2023-02-28T02:54:21;97133.97;;;-0.36;83.27
13434;BME280;6789;47.678;9.158;2023-02-28T02:59:20;97128.84;;;-0.36;83.63
13434;BME280;6789;47.678;9.158;2023-02-28T03:04:19;97119.41;;;-0.45;83.58
13434;BME280;6789;47.678;9.158;2023-02-28T03:09:12;97131.13;;;-0.51;83.47
13434;BME280;6789;47.678;9.158;2023-02-28T03:14:31;97122.94;;;-0.46;83.57
13434;BME280;6789;47.678;9.158;2023-02-28T03:35:21;97115.78;;;-0.52;82.22
13434;BME280;6789;47.678;9.158;2023-02-28T03:40:20;97109.06;;;-0.53;82.92
13434;BME280;6789;47.678;9.158;2023-02-28T03:45:21;97105.56;;;-0.44;82.65
13434;BME280;6789;47.678;9.158;2023-02-28T03:50:35;97110.81;;;-0.36;81.86
13434;BME280;6789;47.678;9.158;2023-02-28T03:55:55;97130.38;;;-0.43;82.12
13434;BME280;6789;47.678;9.158;2023-02-28T04:00:56;97132.50;;;-0.56;82.17
13434;BME280;6789;47.678;9.158;2023-02-28T04:05:54;97120.88;;;-0.43;82.18
13434;BME280;6789;47.678;9.158;2023-02-28T04:10:53;97131.06;;;-0.41;81.64
13434;BME280;6789;47.678;9.158;2023-02-28T04:15:47;97130.38;;;-0.43;82.18
13434;BME280;6789;47.678;9.158;2023-02-28T04:20:38;97140.47;;;-0.50;80.99
13434;BME280;6789;47.678;9.158;2023-02-28T04:25:30;97134.84;;;-0.45;81.86
13434;BME280;6789;47.678;9.158;2023-02-28T04:30:22;97130.00;;;-0.48;82.03
13434;BME280;6789;47.678;9.158;2023-02-28T04:35:13;97137.75;;;-0.48;82.32
13434;BME280;6789;47.678;9.158;2023-02-28T04:40:06;97127.88;;;-0.53;81.56
13434;BME280;6789;47.678;9.158;2023-02-28T04:44:58;97134.84;;;-0.45;82.54
13434;BME280;6789;47.678;9.158;2023-02-28T04:49:50;97133.53;;;-0.49;82.35
13434;BME280;6789;47.678;9.158;2023-02-28T04:54:42;97143.03;;;-0.50;82.26
13434;BME280;6789;47.678;9.158;2023-02-28T04:59:33;97148.19;;;-0.50;82.32
13434;BME280;6789;47.678;9.158;2023-02-28T05:04:26;97152.50;;;-0.50;81.59
13434;BME280;6789;47.678;9.158;2023-02-28T05:09:32;97157.81;;;-0.52;81.48
13434;BME280;6789;47.678;9.158;2023-02-28T05:14:41;97148.41;;;-0.43;81.47
13434;BME280;6789;47.678;9.158;2023-02-28T05:19:47;97162.81;;;-0.50;80.95
13434;BME280;6789;47.678;9.158;2023-02-28T05:24:46;97168.03;;;-0.60;81.96
13434;BME280;6789;47.678;9.158;2023-02-28T05:29:52;97174.00;;;-0.59;82.27
13434;BME280;6789;47.678;9.158;2023-02-28T05:34:57;97178.63;;;-0.63;81.81
13434;BME280;6789;47.678;9.158;2023-02-28T05:40:05;97179.56;;;-0.64;82.25
13434;BME280;6789;47.678;9.158;2023-02-28T05:45:13;97169.91;;;-0.62;82.19
13434;BME280;6789;47.678;9.158;2023-02-28T05:50:08;97187.28;;;-0.64;81.65
13434;BME280;6789;47.678;9.158;2023-02-28T05:55:16;97183.78;;;-0.63;81.67
13434;BME280;6789;47.678;9.158;2023-02-28T06:00:22;97183.19;;;-0.57;81.86
13434;BME280;6789;47.678;9.158;2023-02-28T06:05:17;97187.25;;;-0.54;81.69
13434;BME280;6789;47.678;9.158;2023-02-28T06:10:18;97198.91;;;-0.60;81.85
13434;BME280;6789;47.678;9.158;2023-02-28T06:15:26;97193.03;;;-0.70;81.38
13434;BME280;6789;47.678;9.158;2023-02-28T06:20:41;97201.44;;;-0.77;81.46
13434;BME280;6789;47.678;9.158;2023-02-28T06:26:19;97205.78;;;-0.51;80.88
13434;BME280;6789;47.678;9.158;2023-02-28T06:31:31;97214.63;;;-0.53;81.45
13434;BME280;6789;47.678;9.158;2023-02-28T06:36:40;97212.56;;;-0.50;81.31
13434;BME280;6789;47.678;9.158;2023-02-28T06:41:40;97222.34;;;-0.53;81.58
13434;BME280;6789;47.678;9.158;2023-02-28T06:46:48;97235.78;;;-0.59;82.29
13434;BME280;6789;47.678;9.158;2023-02-28T06:51:45;97234.34;;;-0.44;82.11
13434;BME280;6789;47.678;9.158;2023-02-28T06:56:51;97224.28;;;-0.38;81.92
13434;BME280;6789;47.678;9.158;2023-02-28T07:01:59;97239.47;;;-0.44;80.97
13434;BME280;6789;47.678;9.158;2023-02-28T07:07:16;97253.56;;;-0.39;81.18
13434;BME280;6789;47.678;9.158;2023-02-28T07:12:24;97260.38;;;-0.47;81.77
13434;BME280;6789;47.678;9.158;2023-02-28T07:17:30;97260.75;;;-0.42;81.15
13434;BME280;6789;47.678;9.158;2023-02-28T07:22:35;97262.81;;;-0.46;80.95
13434;BME280;6789;47.678;9.158;2023-02-28T07:27:41;97254.66;;;-0.41;81.66
13434;BME280;6789;47.678;9.158;2023-02-28T07:32:47;97266.75;;;-0.51;81.62
13434;BME280;6789;47.678;9.158;2023-02-28T07:37:54;97270.91;;;-0.41;81.48
13434;BME280;6789;47.678;9.158;2023-02-28T07:43:02;97275.06;;;-0.30;80.72
13434;BME280;6789;47.678;9.158;2023-02-28T07:48:08;97275.53;;;-0.44;81.66
13434;BME280;6789;47.678;9.158;2023-02-28T07:53:15;97283.16;;;-0.25;80.71
13434;BME280;6789;47.678;9.158;2023-02-28T07:58:21;97277.44;;;-0.19;80.48
13434;BME280;6789;47.678;9.158;2023-02-28T08:03:29;97287.63;;;-0.27;80.80
13434;BME280;6789;47.678;9.158;2023-02-28T08:08:35;97281.75;;;-0.37;81.42
13434;BME280;6789;47.678;9.158;2023-02-28T08:13:41;97278.22;;;-0.36;81.31
13434;BME280;6789;47.678;9.158;2023-02-28T08:18:53;97282.00;;;-0.40;81.92
13434;BME280;6789;47.678;9.158;2023-02-28T08:24:03;97278.50;;;-0.39;81.88
13434;BME280;6789;47.678;9.158;2023-02-28T08:29:14;97277.13;;;-0.34;81.75
13434;BME280;6789;47.678;9.158;2023-02-28T08:34:48;97288.69;;;-0.20;80.67
13434;BME280;6789;47.678;9.158;2023-02-28T08:40:18;97278.84;;;-0.07;80.03
13434;BME280;6789;47.678;9.158;2023-02-28T08:45:27;97296.47;;;-0.30;80.65
13434;BME280;6789;47.678;9.158;2023-02-28T08:50:26;97303.50;;;-0.05;80.67
13434;BME280;6789;47.678;9.158;2023-02-28T08:55:18;97293.59;;;0.00;79.31
13434;BME280;6789;47.678;9.158;2023-02-28T09:00:24;97302.66;;;-0.23;80.49
13434;BME280;6789;47.678;9.158;2023-02-28T09:05:17;97323.44;;;-0.24;80.13
13434;BME280;6789;47.678;9.158;2023-02-28T09:10:11;97314.72;;;-0.50;81.37
13434;BME280;6789;47.678;9.158;2023-02-28T09:15:17;97322.78;;;-0.36;80.69
13434;BME280;6789;47.678;9.158;2023-02-28T09:20:23;97323.78;;;-0.46;81.81
13434;BME280;6789;47.678;9.158;2023-02-28T09:25:20;97319.38;;;-0.27;80.96
13434;BME280;6789;47.678;9.158;2023-02-28T09:30:18;97313.88;;;-0.14;80.26
13434;BME280;6789;47.678;9.158;2023-02-28T09:35:25;97310.06;;;-0.10;79.86
13434;BME280;6789;47.678;9.158;2023-02-28T09:40:22;97310.22;;;0.05;79.66
13434;BME280;6789;47.678;9.158;2023-02-28T09:45:37;97313.00;;;-0.05;80.54
13434;BME280;6789;47.678;9.158;2023-02-28T09:50:51;97323.78;;;0.07;79.33
13434;BME280;6789;47.678;9.158;2023-02-28T09:55:52;97317.31;;;0.21;79.09
13434;BME280;6789;47.678;9.158;2023-02-28T10:01:34;97320.88;;;0.37;78.18
13434;BME280;6789;47.678;9.158;2023-02-28T10:06:50;97326.97;;;0.36;79.40
13434;BME280;6789;47.678;9.158;2023-02-28T10:11:45;97329.78;;;0.43;78.50
13434;BME280;6789;47.678;9.158;2023-02-28T10:16:58;97332.72;;;0.48;78.19
13434;BME280;6789;47.678;9.158;2023-02-28T10:22:28;97347.28;;;0.22;78.85
13434;BME280;6789;47.678;9.158;2023-02-28T10:27:29;97352.59;;;0.20;78.97
13434;BME280;6789;47.678;9.158;2023-02-28T10:32:49;97346.00;;;0.53;76.78
13434;BME280;6789;47.678;9.158;2023-02-28T10:37:56;97360.50;;;0.36;77.75
13434;BME280;6789;47.678;9.158;2023-02-28T10:53:35;97343.25;;;0.54;77.32
13434;BME280;6789;47.678;9.158;2023-02-28T10:59:03;97353.50;;;0.64;77.84
13434;BME280;6789;47.678;9.158;2023-02-28T11:04:03;97359.03;;;0.51;77.29
13434;BME280;6789;47.678;9.158;2023-02-28T11:09:27;97363.31;;;0.60;76.90
13434;BME280;6789;47.678;9.158;2023-02-28T11:14:31;97362.44;;;0.86;77.11
13434;BME280;6789;47.678;9.158;2023-02-28T11:19:50;97353.22;;;1.35;76.15
13434;BME280;6789;47.678;9.158;2023-02-28T11:25:18;97366.53;;;0.97;76.32
13434;BME280;6789;47.678;9.158;2023-02-28T11:35:39;97331.72;;;1.01;75.78
13434;BME280;6789;47.678;9.158;2023-02-28T11:46:35;97345.06;;;0.96;75.50
13434;BME280;6789;47.678;9.158;2023-02-28T11:52:14;97347.28;;;0.91;77.04
13434;BME280;6789;47.678;9.158;2023-02-28T12:09:04;97333.53;;;0.83;77.31
13434;BME280;6789;47.678;9.158;2023-02-28T12:14:37;97336.56;;;1.04;76.37
13434;BME280;6789;47.678;9.158;2023-02-28T12:30:24;97348.84;;;1.02;76.06
13434;BME280;6789;47.678;9.158;2023-02-28T12:35:48;97341.81;;;0.94;77.06
13434;BME280;6789;47.678;9.158;2023-02-28T12:41:48;97325.09;;;1.24;76.61
13434;BME280;6789;47.678;9.158;2023-02-28T12:46:42;97326.09;;;1.31;75.40
13434;BME280;6789;47.678;9.158;2023-02-28T12:51:50;97312.69;;;1.60;75.76
13434;BME280;6789;47.678;9.158;2023-02-28T12:57:25;97323.06;;;1.68;74.26
13434;BME280;6789;47.678;9.158;2023-02-28T13:13:28;97318.19;;;1.32;76.22
13434;BME280;6789;47.678;9.158;2023-02-28T13:18:45;97317.94;;;1.43;75.49
13434;BME280;6789;47.678;9.158;2023-02-28T13:29:36;97320.09;;;1.55;75.83
13434;BME280;6789;47.678;9.158;2023-02-28T13:34:23;97320.75;;;1.57;75.09
13434;BME280;6789;47.678;9.158;2023-02-28T14:02:11;97322.38;;;2.00;74.78
13434;BME280;6789;47.678;9.158;2023-02-28T14:07:30;97325.13;;;1.98;74.29
13434;BME280;6789;47.678;9.158;2023-02-28T14:18:41;97337.63;;;1.69;75.69
13434;BME280;6789;47.678;9.158;2023-02-28T14:30:07;97336.66;;;1.45;77.21
13434;BME280;6789;47.678;9.158;2023-02-28T14:36:00;97329.88;;;1.69;76.27
13434;BME280;6789;47.678;9.158;2023-02-28T14:41:33;97337.25;;;1.64;75.65
13434;BME280;6789;47.678;9.158;2023-02-28T14:46:55;97336.56;;;1.54;76.73
13434;BME280;6789;47.678;9.158;2023-02-28T14:57:29;97349.25;;;1.40;77.01
13434;BME280;6789;47.678;9.158;2023-02-28T15:02:37;97355.31;;;1.31;77.52
13434;BME280;6789;47.678;9.158;2023-02-28T15:07:37;97353.03;;;1.28;77.37
13434;BME280;6789;47.678;9.158;2023-02-28T15:12:53;97357.16;;;1.39;78.47
13434;BME280;6789;47.678;9.158;2023-02-28T15:18:05;97357.75;;;1.33;77.66
13434;BME280;6789;47.678;9.158;2023-02-28T15:23:52;97361.91;;;1.26;77.93
13434;BME280;6789;47.678;9.158;2023-02-28T15:29:43;97363.63;;;1.42;77.37
13434;BME280;6789;47.678;9.158;2023-02-28T15:34:51;97357.16;;;1.72;76.58
13434;BME280;6789;47.678;9.158;2023-02-28T15:45:44;97352.41;;;1.59;76.81
13434;BME280;6789;47.678;9.158;2023-02-28T15:56:47;97358.59;;;1.66;77.33
13434;BME280;6789;47.678;9.158;2023-02-28T16:02:33;97355.03;;;1.67;76.56
13434;BME280;6789;47.678;9.158;2023-02-28T16:07:51;97353.38;;;1.58;76.72
13434;BME280;6789;47.678;9.158;2023-02-28T16:12:57;97357.56;;;1.51;76.60
13434;BME280;6789;47.678;9.158;2023-02-28T16:18:03;97352.53;;;1.50;77.19
13434;BME280;6789;47.678;9.158;2023-02-28T16:23:10;97357.56;;;1.51;77.27
13434;BME280;6789;47.678;9.158;2023-02-28T16:28:29;97361.72;;;1.44;78.26
13434;BME280;6789;47.678;9.158;2023-02-28T16:33:36;97366.03;;;1.44;78.63
13434;BME280;6789;47.678;9.158;2023-02-28T16:38:30;97370.72;;;1.40;79.18
13434;BME280;6789;47.678;9.158;2023-02-28T16:43:38;97379.72;;;1.37;79.14
13434;BME280;6789;47.678;9.158;2023-02-28T16:48:45;97376.13;;;1.30;79.29
13434;BME280;6789;47.678;9.158;2023-02-28T16:53:46;97381.91;;;1.24;79.41
13434;BME280;6789;47.678;9.158;2023-02-28T16:59:02;97376.66;;;1.16;79.59
13434;BME280;6789;47.678;9.158;2023-02-28T17:04:28;97387.59;;;1.10;80.12
13434;BME280;6789;47.678;9.158;2023-02-28T17:09:34;97384.97;;;1.02;80.82
13434;BME280;6789;47.678;9.158;2023-02-28T17:14:35;97384.59;;;0.97;81.73
13434;BME280;6789;47.678;9.158;2023-02-28T17:19:41;97384.38;;;0.90;82.13
13434;BME280;6789;47.678;9.158;2023-02-28T17:24:48;97384.97;;;0.84;82.65
13434;BME280;6789;47.678;9.158;2023-02-28T17:29:54;97395.75;;;0.80;82.79
13434;BME280;6789;47.678;9.158;2023-02-28T17:35:00;97403.91;;;0.75;83.05
13434;BME280;6789;47.678;9.158;2023-02-28T17:40:15;97413.59;;;0.73;83.33
13434;BME280;6789;47.678;9.158;2023-02-28T17:45:22;97404.00;;;0.66;83.86
13434;BME280;6789;47.678;9.158;2023-02-28T17:50:32;97410.63;;;0.68;83.54
13434;BME280;6789;47.678;9.158;2023-02-28T17:55:38;97412.41;;;0.68;83.59
13434;BME280;6789;47.678;9.158;2023-02-28T18:00:45;97414.63;;;0.63;83.42
13434;BME280;6789;47.678;9.158;2023-02-28T18:05:52;97413.00;;;0.62;83.75
13434;BME280;6789;47.678;9.158;2023-02-28T18:10:53;97419.25;;;0.60;84.15
13434;BME280;6789;47.678;9.158;2023-02-28T18:15:58;97409.09;;;0.58;84.24
13434;BME280;6789;47.678;9.158;2023-02-28T18:21:06;97412.78;;;0.56;83.95
13434;BME280;6789;47.678;9.158;2023-02-28T18:26:18;97401.63;;;0.55;84.26
13434;BME280;6789;47.678;9.158;2023-02-28T18:31:24;97406.00;;;0.55;83.81
13434;BME280;6789;47.678;9.158;2023-02-28T18:36:22;97403.16;;;0.48;84.57
13434;BME280;6789;47.678;9.158;2023-02-28T18:41:28;97397.06;;;0.49;85.30
13434;BME280;6789;47.678;9.158;2023-02-28T18:46:34;97404.28;;;0.46;85.66
13434;BME280;6789;47.678;9.158;2023-02-28T18:51:40;97401.47;;;0.39;86.44
13434;BME280;6789;47.678;9.158;2023-02-28T18:56:49;97406.13;;;0.36;86.33
13434;BME280;6789;47.678;9.158;2023-02-28T19:01:55;97401.16;;;0.42;86.52
13434;BME280;6789;47.678;9.158;2023-02-28T19:06:52;97397.94;;;0.40;86.58
13434;BME280;6789;47.678;9.158;2023-02-28T19:11:58;97401.47;;;0.39;86.06
13434;BME280;6789;47.678;9.158;2023-02-28T19:17:04;97398.59;;;0.42;86.58
13434;BME280;6789;47.678;9.158;2023-02-28T19:22:10;97399.03;;;0.38;87.36
13434;BME280;6789;47.678;9.158;2023-02-28T19:27:17;97398.44;;;0.26;88.60
13434;BME280;6789;47.678;9.158;2023-02-28T19:32:25;97395.28;;;0.32;87.60
13434;BME280;6789;47.678;9.158;2023-02-28T19:37:31;97395.75;;;0.45;87.25
13434;BME280;6789;47.678;9.158;2023-02-28T19:42:37;97388.44;;;0.41;86.80
13434;BME280;6789;47.678;9.158;2023-02-28T19:47:43;97388.75;;;0.28;87.26
13434;BME280;6789;47.678;9.158;2023-02-28T19:52:49;97388.19;;;0.34;86.90
13434;BME280;6789;47.678;9.158;2023-02-28T19:57:55;97380.59;;;0.33;87.55
13434;BME280;6789;47.678;9.158;2023-02-28T20:03:00;97375.16;;;0.36;87.55
13434;BME280;6789;47.678;9.158;2023-02-28T20:07:56;97367.88;;;0.31;87.66
13434;BME280;6789;47.678;9.158;2023-02-28T20:13:02;97366.81;;;0.24;87.86
13434;BME280;6789;47.678;9.158;2023-02-28T20:18:08;97373.34;;;0.19;88.83
13434;BME280;6789;47.678;9.158;2023-02-28T20:23:13;97374.19;;;0.19;88.78
13434;BME280;6789;47.678;9.158;2023-02-28T20:28:07;97369.13;;;0.27;88.66
13434;BME280;6789;47.678;9.158;2023-02-28T20:33:17;97373.09;;;0.22;88.76
13434;BME280;6789;47.678;9.158;2023-02-28T20:38:14;97363.56;;;0.22;88.88
13434;BME280;6789;47.678;9.158;2023-02-28T20:43:20;97368.00;;;0.30;89.55
13434;BME280;6789;47.678;9.158;2023-02-28T20:48:14;97364.97;;;0.34;88.83
13434;BME280;6789;47.678;9.158;2023-02-28T20:53:49;97363.31;;;0.43;88.87
13434;BME280;6789;47.678;9.158;2023-02-28T20:58:56;97360.06;;;0.58;87.77
13434;BME280;6789;47.678;9.158;2023-02-28T21:04:05;97369.94;;;0.80;86.27
13434;BME280;6789;47.678;9.158;2023-02-28T21:09:06;97367.28;;;0.72;86.49
13434;BME280;6789;47.678;9.158;2023-02-28T21:14:16;97359.63;;;0.80;86.71
13434;BME280;6789;47.678;9.158;2023-02-28T21:19:22;97358.34;;;0.84;86.46
13434;BME280;6789;47.678;9.158;2023-02-28T21:24:28;97346.19;;;0.94;85.10
13434;BME280;6789;47.678;9.158;2023-02-28T21:29:33;97341.03;;;0.94;84.87
13434;BME280;6789;47.678;9.158;2023-02-28T21:34:39;97335.19;;;0.92;84.84
13434;BME280;6789;47.678;9.158;2023-02-28T21:39:32;97337.25;;;0.88;85.10
13434;BME280;6789;47.678;9.158;2023-02-28T21:44:55;97336.09;;;0.83;85.78
13434;BME280;6789;47.678;9.158;2023-02-28T21:50:04;97324.22;;;0.90;86.17
13434;BME280;6789;47.678;9.158;2023-02-28T21:55:54;97332.53;;;0.84;85.63
13434;BME280;6789;47.678;9.158;2023-02-28T22:01:29;97322.88;;;0.86;85.95
13434;BME280;6789;47.678;9.158;2023-02-28T22:06:32;97320.47;;;0.84;85.59
13434;BME280;6789;47.678;9.158;2023-02-28T22:11:28;97317.88;;;0.84;86.42
13434;BME280;6789;47.678;9.158;2023-02-28T22:16:34;97311.69;;;0.95;85.68
13434;BME280;6789;47.678;9.158;2023-02-28T22:21:42;97323.31;;;0.99;85.00
13434;BME280;6789;47.678;9.158;2023-02-28T22:26:36;97345.66;;;0.90;85.53
13434;BME280;6789;47.678;9.158;2023-02-28T22:31:33;97336.47;;;0.88;86.36
13434;BME280;6789;47.678;9.158;2023-02-28T22:36:27;97331.72;;;1.01;85.75
13434;BME280;6789;47.678;9.158;2023-02-28T22:41:22;97326.84;;;0.98;85.44
13434;BME280;6789;47.678;9.158;2023-02-28T22:46:15;97322.34;;;1.00;85.64
13434;BME280;6789;47.678;9.158;2023-02-28T22:51:22;97318.38;;;1.05;85.35
13434;BME280;6789;47.678;9.158;2023-02-28T22:56:21;97312.88;;;1.08;84.85
13434;BME280;6789;47.678;9.158;2023-02-28T23:01:31;97308.53;;;1.09;84.66
13434;BME280;6789;47.678;9.158;2023-02-28T23:06:33;97315.81;;;1.13;84.82
13434;BME280;6789;47.678;9.158;2023-02-28T23:11:38;97322.22;;;1.27;83.78
13434;BME280;6789;47.678;9.158;2023-02-28T23:16:51;97312.53;;;1.29;84.07
13434;BME280;6789;47.678;9.158;2023-02-28T23:21:53;97311.00;;;1.43;83.86
13434;BME280;6789;47.678;9.158;2023-02-28T23:26:49;97314.47;;;1.27;83.75
13434;BME280;6789;47.678;9.158;2023-02-28T23:31:43;97315.94;;;1.37;83.56
13434;BME280;6789;47.678;9.158;2023-02-28T23:36:43;97319.66;;;1.35;83.39
13434;BME280;6789;47.678;9.158;2023-02-28T23:41:52;97307.09;;;1.39;83.30
13434;BME280;6789;47.678;9.158;2023-02-28T23:46:50;97306.44;;;1.38;83.59
13434;BME280;6789;47.678;9.158;2023-02-28T23:51:51;97288.38;;;1.38;82.88
13434;BME280;6789;47.678;9.158;2023-02-28T23:56:49;97297.75;;;1.46;82.71
